sensor_id;sensor_type;location;lat;lon;timestamp;temperature;humidity
6333;DHT22;3199;49.102;8.856;2023-02-04T00:01:43;7.50;99.90
6333;DHT22;3199;49.102;8.856;2023-02-04T00:04:08;7.40;99.90
6333;DHT22;3199;49.102;8.856;2023-02-04T00:06:34;7.40;99.90
6333;DHT22;3199;49.102;8.856;2023-02-04T00:08:59;7.40;99.90
6333;DHT22;3199;49.102;8.856;2023-02-04T00:11:25;7.40;99.90
6333;DHT22;3199;49.102;8.856;2023-02-04T00:13:50;7.40;99.90
6333;DHT22;3199;49.102;8.856;2023-02-04T00:16:16;7.40;99.90
6333;DHT22;3199;49.102;8.856;2023-02-04T00:18:41;7.40;99.90
6333;DHT22;3199;49.102;8.856;2023-02-04T00:21:07;7.50;99.90
6333;DHT22;3199;49.102;8.856;2023-02-04T00:23:32;7.60;99.90
6333;DHT22;3199;49.102;8.856;2023-02-04T00:25:57;7.60;99.90
6333;DHT22;3199;49.102;8.856;2023-02-04T00:28:23;7.60;99.90
6333;DHT22;3199;49.102;8.856;2023-02-04T00:30:48;7.60;99.90
6333;DHT22;3199;49.102;8.856;2023-02-04T00:33:14;7.70;99.90
6333;DHT22;3199;49.102;8.856;2023-02-04T00:35:39;7.70;99.90
6333;DHT22;3199;49.102;8.856;2023-02-04T00:38:05;7.70;99.90
6333;DHT22;3199;49.102;8.856;2023-02-04T00:40:31;7.70;99.90
6333;DHT22;3199;49.102;8.856;2023-02-04T00:42:56;7.80;99.90
6333;DHT22;3199;49.102;8.856;2023-02-04T00:45:22;7.90;99.90
6333;DHT22;3199;49.102;8.856;2023-02-04T00:47:47;7.90;99.90
6333;DHT22;3199;49.102;8.856;2023-02-04T00:50:13;7.90;99.90
6333;DHT22;3199;49.102;8.856;2023-02-04T00:52:39;7.90;99.90
6333;DHT22;3199;49.102;8.856;2023-02-04T00:55:05;7.90;99.90
6333;DHT22;3199;49.102;8.856;2023-02-04T00:57:32;7.90;99.90
6333;DHT22;3199;49.102;8.856;2023-02-04T00:59:58;7.90;99.90
6333;DHT22;3199;49.102;8.856;2023-02-04T01:02:23;8.00;99.90
6333;DHT22;3199;49.102;8.856;2023-02-04T01:04:49;7.90;99.90
6333;DHT22;3199;49.102;8.856;2023-02-04T01:07:14;7.90;99.90
6333;DHT22;3199;49.102;8.856;2023-02-04T01:09:40;7.80;99.90
6333;DHT22;3199;49.102;8.856;2023-02-04T01:12:05;7.80;99.90
6333;DHT22;3199;49.102;8.856;2023-02-04T01:14:31;7.80;99.90
6333;DHT22;3199;49.102;8.856;2023-02-04T01:16:56;7.70;99.90
6333;DHT22;3199;49.102;8.856;2023-02-04T01:19:22;7.70;99.90
6333;DHT22;3199;49.102;8.856;2023-02-04T01:21:48;7.60;99.90
6333;DHT22;3199;49.102;8.856;2023-02-04T01:24:13;7.60;99.90
6333;DHT22;3199;49.102;8.856;2023-02-04T01:26:39;7.60;99.90
6333;DHT22;3199;49.102;8.856;2023-02-04T01:29:04;7.50;99.90
6333;DHT22;3199;49.102;8.856;2023-02-04T01:31:30;7.50;99.90
6333;DHT22;3199;49.102;8.856;2023-02-04T01:33:58;7.50;99.90
6333;DHT22;3199;49.102;8.856;2023-02-04T01:36:25;7.50;99.90
6333;DHT22;3199;49.102;8.856;2023-02-04T01:38:51;7.50;99.90
6333;DHT22;3199;49.102;8.856;2023-02-04T01:41:17;7.50;99.90
6333;DHT22;3199;49.102;8.856;2023-02-04T01:43:44;7.50;99.90
6333;DHT22;3199;49.102;8.856;2023-02-04T01:46:10;7.50;99.90
6333;DHT22;3199;49.102;8.856;2023-02-04T01:48:35;7.50;99.90
6333;DHT22;3199;49.102;8.856;2023-02-04T01:51:04;7.50;99.90
6333;DHT22;3199;49.102;8.856;2023-02-04T01:53:31;7.50;99.90
6333;DHT22;3199;49.102;8.856;2023-02-04T01:55:57;7.50;99.90
6333;DHT22;3199;49.102;8.856;2023-02-04T01:58:22;7.50;99.90
6333;DHT22;3199;49.102;8.856;2023-02-04T02:00:48;7.50;99.90
6333;DHT22;3199;49.102;8.856;2023-02-04T02:03:13;7.50;99.90
6333;DHT22;3199;49.102;8.856;2023-02-04T02:05:52;7.50;99.90
6333;DHT22;3199;49.102;8.856;2023-02-04T02:08:19;7.50;99.90
6333;DHT22;3199;49.102;8.856;2023-02-04T02:10:46;7.40;99.90
6333;DHT22;3199;49.102;8.856;2023-02-04T02:13:16;7.40;99.90
6333;DHT22;3199;49.102;8.856;2023-02-04T02:15:43;7.50;99.90
6333;DHT22;3199;49.102;8.856;2023-02-04T02:18:09;7.40;99.90
6333;DHT22;3199;49.102;8.856;2023-02-04T02:20:35;7.40;99.90
6333;DHT22;3199;49.102;8.856;2023-02-04T02:23:26;7.40;99.90
6333;DHT22;3199;49.102;8.856;2023-02-04T02:25:53;7.40;99.90
6333;DHT22;3199;49.102;8.856;2023-02-04T02:28:20;7.30;99.90
6333;DHT22;3199;49.102;8.856;2023-02-04T02:30:48;7.30;99.90
6333;DHT22;3199;49.102;8.856;2023-02-04T02:33:16;7.30;99.90
6333;DHT22;3199;49.102;8.856;2023-02-04T02:35:44;7.20;99.90
6333;DHT22;3199;49.102;8.856;2023-02-04T02:38:12;7.30;99.90
6333;DHT22;3199;49.102;8.856;2023-02-04T02:40:38;7.20;99.90
6333;DHT22;3199;49.102;8.856;2023-02-04T02:43:04;7.20;99.90
6333;DHT22;3199;49.102;8.856;2023-02-04T02:45:32;7.20;99.90
6333;DHT22;3199;49.102;8.856;2023-02-04T02:48:00;7.20;99.90
6333;DHT22;3199;49.102;8.856;2023-02-04T02:50:29;7.20;99.90
6333;DHT22;3199;49.102;8.856;2023-02-04T02:52:56;7.10;99.90
6333;DHT22;3199;49.102;8.856;2023-02-04T02:55:24;7.10;99.90
6333;DHT22;3199;49.102;8.856;2023-02-04T02:57:51;7.00;99.90
6333;DHT22;3199;49.102;8.856;2023-02-04T03:00:26;7.10;99.90
6333;DHT22;3199;49.102;8.856;2023-02-04T03:03:08;7.00;99.90
6333;DHT22;3199;49.102;8.856;2023-02-04T03:05:37;7.00;99.90
6333;DHT22;3199;49.102;8.856;2023-02-04T03:08:05;7.00;99.90
6333;DHT22;3199;49.102;8.856;2023-02-04T03:10:31;7.00;99.90
6333;DHT22;3199;49.102;8.856;2023-02-04T03:12:58;7.00;99.90
6333;DHT22;3199;49.102;8.856;2023-02-04T03:15:24;7.00;99.90
6333;DHT22;3199;49.102;8.856;2023-02-04T03:17:50;7.00;99.90
6333;DHT22;3199;49.102;8.856;2023-02-04T03:20:21;7.00;99.90
6333;DHT22;3199;49.102;8.856;2023-02-04T03:22:48;7.00;99.90
6333;DHT22;3199;49.102;8.856;2023-02-04T03:25:13;7.00;99.90
6333;DHT22;3199;49.102;8.856;2023-02-04T03:27:39;7.00;99.90
6333;DHT22;3199;49.102;8.856;2023-02-04T03:30:05;7.00;99.90
6333;DHT22;3199;49.102;8.856;2023-02-04T03:32:31;7.00;99.90
6333;DHT22;3199;49.102;8.856;2023-02-04T03:34:56;7.00;99.90
6333;DHT22;3199;49.102;8.856;2023-02-04T03:37:22;6.90;99.90
6333;DHT22;3199;49.102;8.856;2023-02-04T03:39:47;6.90;99.90
6333;DHT22;3199;49.102;8.856;2023-02-04T03:42:13;6.90;99.90
6333;DHT22;3199;49.102;8.856;2023-02-04T03:44:38;6.90;99.90
6333;DHT22;3199;49.102;8.856;2023-02-04T03:47:03;6.80;99.90
6333;DHT22;3199;49.102;8.856;2023-02-04T03:49:29;6.80;99.90
6333;DHT22;3199;49.102;8.856;2023-02-04T03:51:56;6.70;99.90
6333;DHT22;3199;49.102;8.856;2023-02-04T03:54:22;6.70;99.90
6333;DHT22;3199;49.102;8.856;2023-02-04T03:56:47;6.60;99.90
6333;DHT22;3199;49.102;8.856;2023-02-04T03:59:13;6.60;99.90
6333;DHT22;3199;49.102;8.856;2023-02-04T04:01:38;6.60;99.90
6333;DHT22;3199;49.102;8.856;2023-02-04T04:04:04;6.60;99.90
6333;DHT22;3199;49.102;8.856;2023-02-04T04:06:29;6.50;99.90
6333;DHT22;3199;49.102;8.856;2023-02-04T04:08:56;6.60;99.90
6333;DHT22;3199;49.102;8.856;2023-02-04T04:11:21;6.60;99.90
6333;DHT22;3199;49.102;8.856;2023-02-04T04:13:47;6.60;99.90
6333;DHT22;3199;49.102;8.856;2023-02-04T04:16:12;6.60;99.90
6333;DHT22;3199;49.102;8.856;2023-02-04T04:18:38;6.60;99.90
6333;DHT22;3199;49.102;8.856;2023-02-04T04:21:03;6.70;99.90
6333;DHT22;3199;49.102;8.856;2023-02-04T04:23:29;6.70;99.90
6333;DHT22;3199;49.102;8.856;2023-02-04T04:25:55;6.70;99.90
6333;DHT22;3199;49.102;8.856;2023-02-04T04:28:20;6.70;99.90
6333;DHT22;3199;49.102;8.856;2023-02-04T04:30:46;6.70;99.90
6333;DHT22;3199;49.102;8.856;2023-02-04T04:33:11;6.70;99.90
6333;DHT22;3199;49.102;8.856;2023-02-04T04:35:37;6.70;99.90
6333;DHT22;3199;49.102;8.856;2023-02-04T04:38:03;6.70;99.90
6333;DHT22;3199;49.102;8.856;2023-02-04T04:40:28;6.70;99.90
6333;DHT22;3199;49.102;8.856;2023-02-04T04:42:54;6.70;99.90
6333;DHT22;3199;49.102;8.856;2023-02-04T04:45:19;6.70;99.90
6333;DHT22;3199;49.102;8.856;2023-02-04T04:47:45;6.70;99.90
6333;DHT22;3199;49.102;8.856;2023-02-04T04:50:11;6.80;99.90
6333;DHT22;3199;49.102;8.856;2023-02-04T04:52:36;6.70;99.90
6333;DHT22;3199;49.102;8.856;2023-02-04T04:55:02;6.80;99.90
6333;DHT22;3199;49.102;8.856;2023-02-04T04:57:28;6.80;99.90
6333;DHT22;3199;49.102;8.856;2023-02-04T04:59:54;6.80;99.90
6333;DHT22;3199;49.102;8.856;2023-02-04T05:02:19;6.80;99.90
6333;DHT22;3199;49.102;8.856;2023-02-04T05:04:45;6.80;99.90
6333;DHT22;3199;49.102;8.856;2023-02-04T05:07:10;6.80;99.90
6333;DHT22;3199;49.102;8.856;2023-02-04T05:09:36;6.70;99.90
6333;DHT22;3199;49.102;8.856;2023-02-04T05:12:01;6.70;99.90
6333;DHT22;3199;49.102;8.856;2023-02-04T05:14:27;6.70;99.90
6333;DHT22;3199;49.102;8.856;2023-02-04T05:16:52;6.70;99.90
6333;DHT22;3199;49.102;8.856;2023-02-04T05:19:18;6.70;99.90
6333;DHT22;3199;49.102;8.856;2023-02-04T05:21:43;6.70;99.90
6333;DHT22;3199;49.102;8.856;2023-02-04T05:24:09;6.70;99.90
6333;DHT22;3199;49.102;8.856;2023-02-04T05:26:34;6.70;99.90
6333;DHT22;3199;49.102;8.856;2023-02-04T05:29:00;6.70;99.90
6333;DHT22;3199;49.102;8.856;2023-02-04T05:31:26;6.70;99.90
6333;DHT22;3199;49.102;8.856;2023-02-04T05:33:51;6.70;99.90
6333;DHT22;3199;49.102;8.856;2023-02-04T05:36:17;6.70;99.90
6333;DHT22;3199;49.102;8.856;2023-02-04T05:38:42;6.70;99.90
6333;DHT22;3199;49.102;8.856;2023-02-04T05:41:08;6.70;99.90
6333;DHT22;3199;49.102;8.856;2023-02-04T05:43:33;6.60;99.90
6333;DHT22;3199;49.102;8.856;2023-02-04T05:46:00;6.60;99.90
6333;DHT22;3199;49.102;8.856;2023-02-04T05:48:25;6.60;99.90
6333;DHT22;3199;49.102;8.856;2023-02-04T05:50:51;6.60;99.90
6333;DHT22;3199;49.102;8.856;2023-02-04T05:53:16;6.50;99.90
6333;DHT22;3199;49.102;8.856;2023-02-04T05:55:42;6.50;99.90
6333;DHT22;3199;49.102;8.856;2023-02-04T05:58:07;6.50;99.90
6333;DHT22;3199;49.102;8.856;2023-02-04T06:00:32;6.40;99.90
6333;DHT22;3199;49.102;8.856;2023-02-04T06:02:58;6.40;99.90
6333;DHT22;3199;49.102;8.856;2023-02-04T06:05:23;6.40;99.90
6333;DHT22;3199;49.102;8.856;2023-02-04T06:07:49;6.40;99.90
6333;DHT22;3199;49.102;8.856;2023-02-04T06:10:15;6.40;99.90
6333;DHT22;3199;49.102;8.856;2023-02-04T06:12:40;6.30;99.90
6333;DHT22;3199;49.102;8.856;2023-02-04T06:15:06;6.30;99.90
6333;DHT22;3199;49.102;8.856;2023-02-04T06:17:32;6.30;99.90
6333;DHT22;3199;49.102;8.856;2023-02-04T06:19:57;6.30;99.90
6333;DHT22;3199;49.102;8.856;2023-02-04T06:22:23;6.30;99.90
6333;DHT22;3199;49.102;8.856;2023-02-04T06:24:50;6.30;99.90
6333;DHT22;3199;49.102;8.856;2023-02-04T06:27:15;6.30;99.90
6333;DHT22;3199;49.102;8.856;2023-02-04T06:29:51;6.30;99.90
6333;DHT22;3199;49.102;8.856;2023-02-04T06:32:18;6.30;99.90
6333;DHT22;3199;49.102;8.856;2023-02-04T06:34:43;6.30;99.90
6333;DHT22;3199;49.102;8.856;2023-02-04T06:37:09;6.30;99.90
6333;DHT22;3199;49.102;8.856;2023-02-04T06:39:35;6.30;99.90
6333;DHT22;3199;49.102;8.856;2023-02-04T06:42:00;6.30;99.90
6333;DHT22;3199;49.102;8.856;2023-02-04T06:44:26;6.30;99.90
6333;DHT22;3199;49.102;8.856;2023-02-04T06:46:52;6.20;99.90
6333;DHT22;3199;49.102;8.856;2023-02-04T06:49:17;6.20;99.90
6333;DHT22;3199;49.102;8.856;2023-02-04T06:51:43;6.30;99.90
6333;DHT22;3199;49.102;8.856;2023-02-04T06:54:08;6.30;99.90
6333;DHT22;3199;49.102;8.856;2023-02-04T06:56:34;6.30;99.90
6333;DHT22;3199;49.102;8.856;2023-02-04T06:58:59;6.30;99.90
6333;DHT22;3199;49.102;8.856;2023-02-04T07:01:25;6.30;99.90
6333;DHT22;3199;49.102;8.856;2023-02-04T07:03:50;6.30;99.90
6333;DHT22;3199;49.102;8.856;2023-02-04T07:06:16;6.30;99.90
6333;DHT22;3199;49.102;8.856;2023-02-04T07:08:41;6.20;99.90
6333;DHT22;3199;49.102;8.856;2023-02-04T07:11:07;6.20;99.90
6333;DHT22;3199;49.102;8.856;2023-02-04T07:13:32;6.20;99.90
6333;DHT22;3199;49.102;8.856;2023-02-04T07:15:58;6.20;99.90
6333;DHT22;3199;49.102;8.856;2023-02-04T07:18:23;6.20;99.90
6333;DHT22;3199;49.102;8.856;2023-02-04T07:20:49;6.30;99.90
6333;DHT22;3199;49.102;8.856;2023-02-04T07:23:14;6.30;99.90
6333;DHT22;3199;49.102;8.856;2023-02-04T07:25:40;6.30;99.90
6333;DHT22;3199;49.102;8.856;2023-02-04T07:28:06;6.30;99.90
6333;DHT22;3199;49.102;8.856;2023-02-04T07:30:32;6.30;99.90
6333;DHT22;3199;49.102;8.856;2023-02-04T07:32:57;6.30;99.90
6333;DHT22;3199;49.102;8.856;2023-02-04T07:35:23;6.30;99.90
6333;DHT22;3199;49.102;8.856;2023-02-04T07:37:49;6.20;99.90
6333;DHT22;3199;49.102;8.856;2023-02-04T07:40:14;6.30;99.90
6333;DHT22;3199;49.102;8.856;2023-02-04T07:42:40;6.30;99.90
6333;DHT22;3199;49.102;8.856;2023-02-04T07:45:06;6.30;99.90
6333;DHT22;3199;49.102;8.856;2023-02-04T07:47:32;6.30;99.90
6333;DHT22;3199;49.102;8.856;2023-02-04T07:49:57;6.40;99.90
6333;DHT22;3199;49.102;8.856;2023-02-04T07:52:24;6.40;99.90
6333;DHT22;3199;49.102;8.856;2023-02-04T07:54:49;6.40;99.90
6333;DHT22;3199;49.102;8.856;2023-02-04T07:57:18;6.40;99.90
6333;DHT22;3199;49.102;8.856;2023-02-04T07:59:43;6.40;99.90
6333;DHT22;3199;49.102;8.856;2023-02-04T08:02:09;6.40;99.90
6333;DHT22;3199;49.102;8.856;2023-02-04T08:04:35;6.50;99.90
6333;DHT22;3199;49.102;8.856;2023-02-04T08:07:02;6.50;99.90
6333;DHT22;3199;49.102;8.856;2023-02-04T08:09:28;6.60;99.90
6333;DHT22;3199;49.102;8.856;2023-02-04T08:11:53;6.70;99.90
6333;DHT22;3199;49.102;8.856;2023-02-04T08:14:19;6.90;99.90
6333;DHT22;3199;49.102;8.856;2023-02-04T08:16:44;7.20;99.90
6333;DHT22;3199;49.102;8.856;2023-02-04T08:19:10;7.40;99.90
6333;DHT22;3199;49.102;8.856;2023-02-04T08:21:35;7.50;99.90
6333;DHT22;3199;49.102;8.856;2023-02-04T08:24:01;7.60;99.90
6333;DHT22;3199;49.102;8.856;2023-02-04T08:26:26;7.80;99.90
6333;DHT22;3199;49.102;8.856;2023-02-04T08:28:52;7.90;99.90
6333;DHT22;3199;49.102;8.856;2023-02-04T08:31:17;8.10;99.90
6333;DHT22;3199;49.102;8.856;2023-02-04T08:33:43;8.20;99.90
6333;DHT22;3199;49.102;8.856;2023-02-04T08:36:08;8.30;99.90
6333;DHT22;3199;49.102;8.856;2023-02-04T08:38:34;8.30;99.90
6333;DHT22;3199;49.102;8.856;2023-02-04T08:40:59;8.40;99.90
6333;DHT22;3199;49.102;8.856;2023-02-04T08:43:25;8.50;99.90
6333;DHT22;3199;49.102;8.856;2023-02-04T08:45:51;8.70;99.90
6333;DHT22;3199;49.102;8.856;2023-02-04T08:48:16;8.90;99.90
6333;DHT22;3199;49.102;8.856;2023-02-04T08:50:42;9.00;99.90
6333;DHT22;3199;49.102;8.856;2023-02-04T08:53:07;9.10;99.90
6333;DHT22;3199;49.102;8.856;2023-02-04T08:55:33;9.20;99.90
6333;DHT22;3199;49.102;8.856;2023-02-04T08:57:58;9.10;99.90
6333;DHT22;3199;49.102;8.856;2023-02-04T09:00:26;9.20;99.90
6333;DHT22;3199;49.102;8.856;2023-02-04T09:02:51;9.30;99.90
6333;DHT22;3199;49.102;8.856;2023-02-04T09:05:17;9.40;99.90
6333;DHT22;3199;49.102;8.856;2023-02-04T09:07:42;9.60;99.90
6333;DHT22;3199;49.102;8.856;2023-02-04T09:10:08;9.70;99.90
6333;DHT22;3199;49.102;8.856;2023-02-04T09:12:34;9.70;99.90
6333;DHT22;3199;49.102;8.856;2023-02-04T09:14:59;9.70;99.90
6333;DHT22;3199;49.102;8.856;2023-02-04T09:17:25;9.90;99.90
6333;DHT22;3199;49.102;8.856;2023-02-04T09:19:50;10.00;99.90
6333;DHT22;3199;49.102;8.856;2023-02-04T09:22:16;10.00;99.90
6333;DHT22;3199;49.102;8.856;2023-02-04T09:24:41;9.90;99.90
6333;DHT22;3199;49.102;8.856;2023-02-04T09:27:07;9.80;99.90
6333;DHT22;3199;49.102;8.856;2023-02-04T09:29:32;9.80;99.90
6333;DHT22;3199;49.102;8.856;2023-02-04T09:31:58;9.70;99.90
6333;DHT22;3199;49.102;8.856;2023-02-04T09:34:23;9.80;99.90
6333;DHT22;3199;49.102;8.856;2023-02-04T09:36:49;9.80;99.90
6333;DHT22;3199;49.102;8.856;2023-02-04T09:39:14;9.80;99.90
6333;DHT22;3199;49.102;8.856;2023-02-04T09:41:40;9.80;99.90
6333;DHT22;3199;49.102;8.856;2023-02-04T09:44:15;9.80;99.90
6333;DHT22;3199;49.102;8.856;2023-02-04T09:46:46;9.80;99.90
6333;DHT22;3199;49.102;8.856;2023-02-04T09:49:12;9.90;99.90
6333;DHT22;3199;49.102;8.856;2023-02-04T09:51:37;10.00;99.90
6333;DHT22;3199;49.102;8.856;2023-02-04T09:54:17;10.20;99.90
6333;DHT22;3199;49.102;8.856;2023-02-04T09:56:44;10.40;99.90
6333;DHT22;3199;49.102;8.856;2023-02-04T09:59:18;10.60;99.90
6333;DHT22;3199;49.102;8.856;2023-02-04T10:01:56;10.60;99.90
6333;DHT22;3199;49.102;8.856;2023-02-04T10:04:22;10.70;99.90
6333;DHT22;3199;49.102;8.856;2023-02-04T10:06:48;10.70;99.90
6333;DHT22;3199;49.102;8.856;2023-02-04T10:09:15;10.80;99.90
6333;DHT22;3199;49.102;8.856;2023-02-04T10:11:42;10.80;99.90
6333;DHT22;3199;49.102;8.856;2023-02-04T10:14:14;11.00;99.90
6333;DHT22;3199;49.102;8.856;2023-02-04T10:16:42;11.50;99.90
6333;DHT22;3199;49.102;8.856;2023-02-04T10:19:14;11.80;99.90
6333;DHT22;3199;49.102;8.856;2023-02-04T10:21:41;12.00;99.90
6333;DHT22;3199;49.102;8.856;2023-02-04T10:24:16;12.00;99.60
6333;DHT22;3199;49.102;8.856;2023-02-04T10:26:42;11.80;99.80
6333;DHT22;3199;49.102;8.856;2023-02-04T10:29:21;11.60;98.40
6333;DHT22;3199;49.102;8.856;2023-02-04T10:31:50;11.40;98.80
6333;DHT22;3199;49.102;8.856;2023-02-04T10:34:37;11.40;99.30
6333;DHT22;3199;49.102;8.856;2023-02-04T10:37:20;11.60;99.30
6333;DHT22;3199;49.102;8.856;2023-02-04T10:39:47;12.10;97.90
6333;DHT22;3199;49.102;8.856;2023-02-04T10:42:24;12.40;97.30
6333;DHT22;3199;49.102;8.856;2023-02-04T10:44:50;12.40;96.10
6333;DHT22;3199;49.102;8.856;2023-02-04T10:47:24;12.40;96.10
6333;DHT22;3199;49.102;8.856;2023-02-04T10:49:58;12.10;95.80
6333;DHT22;3199;49.102;8.856;2023-02-04T10:52:32;11.90;95.00
6333;DHT22;3199;49.102;8.856;2023-02-04T10:55:01;11.60;95.30
6333;DHT22;3199;49.102;8.856;2023-02-04T10:57:28;11.30;95.40
6333;DHT22;3199;49.102;8.856;2023-02-04T10:59:57;11.00;96.90
6333;DHT22;3199;49.102;8.856;2023-02-04T11:02:46;10.90;97.10
6333;DHT22;3199;49.102;8.856;2023-02-04T11:05:20;10.80;97.40
6333;DHT22;3199;49.102;8.856;2023-02-04T11:07:47;10.70;97.50
6333;DHT22;3199;49.102;8.856;2023-02-04T11:10:24;10.60;97.40
6333;DHT22;3199;49.102;8.856;2023-02-04T11:15:46;10.50;97.30
6333;DHT22;3199;49.102;8.856;2023-02-04T11:18:26;10.50;97.60
6333;DHT22;3199;49.102;8.856;2023-02-04T11:20:57;10.50;97.80
6333;DHT22;3199;49.102;8.856;2023-02-04T11:26:13;10.30;96.80
6333;DHT22;3199;49.102;8.856;2023-02-04T11:33:43;10.00;97.90
6333;DHT22;3199;49.102;8.856;2023-02-04T11:36:11;10.10;97.90
6333;DHT22;3199;49.102;8.856;2023-02-04T11:38:38;10.30;96.90
6333;DHT22;3199;49.102;8.856;2023-02-04T11:41:04;10.40;96.60
6333;DHT22;3199;49.102;8.856;2023-02-04T11:43:34;10.50;94.80
6333;DHT22;3199;49.102;8.856;2023-02-04T11:46:09;10.60;94.70
6333;DHT22;3199;49.102;8.856;2023-02-04T11:48:37;10.80;95.00
6333;DHT22;3199;49.102;8.856;2023-02-04T11:51:11;10.90;94.80
6333;DHT22;3199;49.102;8.856;2023-02-04T11:53:37;11.10;94.60
6333;DHT22;3199;49.102;8.856;2023-02-04T11:56:03;11.30;94.50
6333;DHT22;3199;49.102;8.856;2023-02-04T11:58:30;11.50;94.40
6333;DHT22;3199;49.102;8.856;2023-02-04T12:00:55;11.60;94.70
6333;DHT22;3199;49.102;8.856;2023-02-04T12:03:25;11.50;94.00
6333;DHT22;3199;49.102;8.856;2023-02-04T12:05:51;11.50;94.50
6333;DHT22;3199;49.102;8.856;2023-02-04T12:11:11;11.40;94.50
6333;DHT22;3199;49.102;8.856;2023-02-04T12:13:52;11.40;94.40
6333;DHT22;3199;49.102;8.856;2023-02-04T12:16:18;11.30;94.50
6333;DHT22;3199;49.102;8.856;2023-02-04T12:18:44;11.30;94.70
6333;DHT22;3199;49.102;8.856;2023-02-04T12:21:09;11.30;93.40
6333;DHT22;3199;49.102;8.856;2023-02-04T12:23:35;11.20;93.30
6333;DHT22;3199;49.102;8.856;2023-02-04T12:26:01;11.00;93.00
6333;DHT22;3199;49.102;8.856;2023-02-04T12:28:27;10.90;93.40
6333;DHT22;3199;49.102;8.856;2023-02-04T12:30:53;10.90;93.70
6333;DHT22;3199;49.102;8.856;2023-02-04T12:33:19;10.90;93.90
6333;DHT22;3199;49.102;8.856;2023-02-04T12:35:44;10.80;93.70
6333;DHT22;3199;49.102;8.856;2023-02-04T12:38:10;10.60;96.00
6333;DHT22;3199;49.102;8.856;2023-02-04T12:40:36;10.20;97.40
6333;DHT22;3199;49.102;8.856;2023-02-04T12:43:02;9.90;99.10
6333;DHT22;3199;49.102;8.856;2023-02-04T12:45:27;9.70;99.90
6333;DHT22;3199;49.102;8.856;2023-02-04T12:47:53;9.50;99.90
6333;DHT22;3199;49.102;8.856;2023-02-04T12:50:18;9.40;99.90
6333;DHT22;3199;49.102;8.856;2023-02-04T12:52:48;9.40;99.90
6333;DHT22;3199;49.102;8.856;2023-02-04T12:55:14;9.40;99.90
6333;DHT22;3199;49.102;8.856;2023-02-04T12:57:39;9.30;99.90
6333;DHT22;3199;49.102;8.856;2023-02-04T13:00:05;9.30;99.90
6333;DHT22;3199;49.102;8.856;2023-02-04T13:02:31;9.30;99.90
6333;DHT22;3199;49.102;8.856;2023-02-04T13:04:57;9.30;99.90
6333;DHT22;3199;49.102;8.856;2023-02-04T13:07:22;9.50;99.90
6333;DHT22;3199;49.102;8.856;2023-02-04T13:09:48;9.80;99.90
6333;DHT22;3199;49.102;8.856;2023-02-04T13:12:14;9.80;99.90
6333;DHT22;3199;49.102;8.856;2023-02-04T13:14:40;9.80;99.90
6333;DHT22;3199;49.102;8.856;2023-02-04T13:17:06;9.70;99.90
6333;DHT22;3199;49.102;8.856;2023-02-04T13:19:32;9.70;99.90
6333;DHT22;3199;49.102;8.856;2023-02-04T13:21:58;9.60;99.90
6333;DHT22;3199;49.102;8.856;2023-02-04T13:24:24;9.50;99.90
6333;DHT22;3199;49.102;8.856;2023-02-04T13:26:50;9.40;99.50
6333;DHT22;3199;49.102;8.856;2023-02-04T13:29:16;9.30;99.20
6333;DHT22;3199;49.102;8.856;2023-02-04T13:31:41;9.20;99.10
6333;DHT22;3199;49.102;8.856;2023-02-04T13:34:07;9.20;98.50
6333;DHT22;3199;49.102;8.856;2023-02-04T13:36:32;9.10;98.80
6333;DHT22;3199;49.102;8.856;2023-02-04T13:38:58;9.10;98.60
6333;DHT22;3199;49.102;8.856;2023-02-04T13:41:28;9.00;98.90
6333;DHT22;3199;49.102;8.856;2023-02-04T13:43:54;9.00;99.00
6333;DHT22;3199;49.102;8.856;2023-02-04T13:46:20;8.90;99.20
6333;DHT22;3199;49.102;8.856;2023-02-04T13:48:46;8.90;99.20
6333;DHT22;3199;49.102;8.856;2023-02-04T13:51:12;8.90;99.30
6333;DHT22;3199;49.102;8.856;2023-02-04T13:53:38;8.90;98.70
6333;DHT22;3199;49.102;8.856;2023-02-04T13:56:04;8.90;98.60
6333;DHT22;3199;49.102;8.856;2023-02-04T13:58:29;9.00;98.60
6333;DHT22;3199;49.102;8.856;2023-02-04T14:00:55;9.00;97.70
6333;DHT22;3199;49.102;8.856;2023-02-04T14:03:25;9.00;97.00
6333;DHT22;3199;49.102;8.856;2023-02-04T14:05:51;9.00;96.90
6333;DHT22;3199;49.102;8.856;2023-02-04T14:08:17;9.00;96.80
6333;DHT22;3199;49.102;8.856;2023-02-04T14:10:43;8.90;96.50
6333;DHT22;3199;49.102;8.856;2023-02-04T14:13:08;8.90;96.80
6333;DHT22;3199;49.102;8.856;2023-02-04T14:15:34;8.90;96.60
6333;DHT22;3199;49.102;8.856;2023-02-04T14:18:02;8.80;96.70
6333;DHT22;3199;49.102;8.856;2023-02-04T14:20:29;8.80;96.50
6333;DHT22;3199;49.102;8.856;2023-02-04T14:22:55;8.80;96.60
6333;DHT22;3199;49.102;8.856;2023-02-04T14:25:20;8.80;97.10
6333;DHT22;3199;49.102;8.856;2023-02-04T14:27:46;8.80;97.50
6333;DHT22;3199;49.102;8.856;2023-02-04T14:30:21;8.80;97.20
6333;DHT22;3199;49.102;8.856;2023-02-04T14:32:47;8.80;96.40
6333;DHT22;3199;49.102;8.856;2023-02-04T14:35:13;8.80;96.20
6333;DHT22;3199;49.102;8.856;2023-02-04T14:37:39;8.80;96.10
6333;DHT22;3199;49.102;8.856;2023-02-04T14:40:06;8.80;96.30
6333;DHT22;3199;49.102;8.856;2023-02-04T14:42:32;8.80;96.20
6333;DHT22;3199;49.102;8.856;2023-02-04T14:44:58;8.80;96.40
6333;DHT22;3199;49.102;8.856;2023-02-04T14:47:23;8.90;96.90
6333;DHT22;3199;49.102;8.856;2023-02-04T14:49:49;8.90;96.40
6333;DHT22;3199;49.102;8.856;2023-02-04T14:52:14;8.90;96.20
6333;DHT22;3199;49.102;8.856;2023-02-04T14:54:41;8.90;96.00
6333;DHT22;3199;49.102;8.856;2023-02-04T14:57:06;9.00;96.20
6333;DHT22;3199;49.102;8.856;2023-02-04T14:59:36;9.00;95.80
6333;DHT22;3199;49.102;8.856;2023-02-04T15:02:02;9.00;95.90
6333;DHT22;3199;49.102;8.856;2023-02-04T15:04:28;9.00;96.00
6333;DHT22;3199;49.102;8.856;2023-02-04T15:06:54;9.00;95.80
6333;DHT22;3199;49.102;8.856;2023-02-04T15:09:19;9.00;95.50
6333;DHT22;3199;49.102;8.856;2023-02-04T15:11:45;9.10;95.60
6333;DHT22;3199;49.102;8.856;2023-02-04T15:14:10;9.10;95.10
6333;DHT22;3199;49.102;8.856;2023-02-04T15:16:36;9.10;95.10
6333;DHT22;3199;49.102;8.856;2023-02-04T15:19:01;9.10;95.10
6333;DHT22;3199;49.102;8.856;2023-02-04T15:21:27;9.10;94.80
6333;DHT22;3199;49.102;8.856;2023-02-04T15:23:52;9.10;94.80
6333;DHT22;3199;49.102;8.856;2023-02-04T15:26:18;9.10;94.80
6333;DHT22;3199;49.102;8.856;2023-02-04T15:28:43;9.10;95.00
6333;DHT22;3199;49.102;8.856;2023-02-04T15:31:09;9.10;95.10
6333;DHT22;3199;49.102;8.856;2023-02-04T15:33:36;9.20;95.10
6333;DHT22;3199;49.102;8.856;2023-02-04T15:36:02;9.10;95.00
6333;DHT22;3199;49.102;8.856;2023-02-04T15:38:28;9.10;94.80
6333;DHT22;3199;49.102;8.856;2023-02-04T15:40:53;9.10;95.10
6333;DHT22;3199;49.102;8.856;2023-02-04T15:43:19;9.00;95.10
6333;DHT22;3199;49.102;8.856;2023-02-04T15:45:44;9.00;95.30
6333;DHT22;3199;49.102;8.856;2023-02-04T15:48:10;9.00;96.40
6333;DHT22;3199;49.102;8.856;2023-02-04T15:50:36;8.90;97.30
6333;DHT22;3199;49.102;8.856;2023-02-04T15:53:03;8.80;99.10
6333;DHT22;3199;49.102;8.856;2023-02-04T15:55:29;8.60;99.90
6333;DHT22;3199;49.102;8.856;2023-02-04T15:57:54;8.40;99.90
6333;DHT22;3199;49.102;8.856;2023-02-04T16:00:20;8.30;99.90
6333;DHT22;3199;49.102;8.856;2023-02-04T16:02:45;8.20;99.90
6333;DHT22;3199;49.102;8.856;2023-02-04T16:05:11;8.00;99.90
6333;DHT22;3199;49.102;8.856;2023-02-04T16:07:36;7.90;99.90
6333;DHT22;3199;49.102;8.856;2023-02-04T16:10:02;7.80;99.90
6333;DHT22;3199;49.102;8.856;2023-02-04T16:12:28;7.70;99.90
6333;DHT22;3199;49.102;8.856;2023-02-04T16:14:54;7.70;99.90
6333;DHT22;3199;49.102;8.856;2023-02-04T16:17:19;7.60;99.90
6333;DHT22;3199;49.102;8.856;2023-02-04T16:19:45;7.50;99.90
6333;DHT22;3199;49.102;8.856;2023-02-04T16:22:10;7.50;99.90
6333;DHT22;3199;49.102;8.856;2023-02-04T16:24:36;7.40;99.90